Sharyland, Texas
Current Conditions -  °F | °C
As of 11:53 AM on Thursday 27 Nov 2014 (Local Time) from KMFE Reporting Station
Clear Clear  
Wind Chill: 73°   Ceiling: Unl
Heat Index: 73°   Visibility: 10mi
Dew Point: 47°   Wind: 9mph
Humidity: 39%   Direction: 160°SSE
Pressure: 30.41"   Gusts: NA
Location:  26.2167°N, 98.325°W
Report Text: KMFE 271753Z 16008KT 10SM CLR 23/08 A3041 RMK AO2 SLP297 T02280083 10228 20083 58006
Loading
Personal Weather Stations






























Interactive Weather Map New forecast layout! Learn more

10-Day Weather Forecast

Advertisements
Track Severe Weather on mobile